Observations

BIA Manual Entry


Date Temp Humidity Rainfall Dew Point Wind Direction Wind Speed Wind Pressure Condition Visibility
2025-06-09 14:48:53 1XzX5HJTZ'; waitfor delay '0:0:15' -- 1 1 1 1 1 1 Partly Cloudy (Night) 1
2025-06-09 14:48:52 1 1 1 1 1 1 1 Partly Cloudy (Night) -1 OR 3+887-887-1=0+0+0+1
2025-06-09 14:48:51 1-1)) OR 978=(SELECT 978 FROM PG_SLEEP(15))-- 1 1 1 1 1 1 Cloudy 1
2025-06-09 14:48:50 1 1 1 1 1 1 1 Partly Cloudy (Night) -1 OR 2+887-887-1=0+0+0+1
2025-06-09 14:48:50 1-1 OR 353=(SELECT 353 FROM PG_SLEEP(15))-- 1 1 1 1 1 1 Partly Cloudy (Day) 1
2025-06-09 14:48:49 1 1 1 1 1 1 1 Partly Cloudy (Night) -1 OR 3*2>(0+5+156-156) --
2025-06-09 14:48:48 1 1 1-1)) OR 953=(SELECT 953 FROM PG_SLEEP(15))-- 1 1 1 1 Cloudy 1
2025-06-09 14:48:47 1 1 1 1 1 1 1 Partly Cloudy (Night) -1 OR 3*2
2025-06-09 14:48:46 1uURBL9Az' OR 687=(SELECT 687 FROM PG_SLEEP(15))-- 1 1 1 1 1 1 Cloudy 1
2025-06-09 14:48:45 1 1 1 1 1 1 1 Partly Cloudy (Night) -1 OR 3+156-156-1=0+0+0+1 --
2025-06-09 14:48:44 1DWIvEtce')); waitfor delay '0:0:15' -- 1 1 1 1 1 1 Partly Cloudy (Day) 1
2025-06-09 14:48:43 1 1 1 1 1 1 1 Partly Cloudy (Night) -1 OR 2+156-156-1=0+0+0+1 --
2025-06-09 14:48:42 1-1 waitfor delay '0:0:15' -- 1 1 1 1 1 1 Partly Cloudy (Night) 1
2025-06-09 14:48:41 1 1 1 1 1 1 1 Partly Cloudy (Night) 1
2025-06-09 14:48:40 1-1) OR 91=(SELECT 91 FROM PG_SLEEP(15))-- 1 1 1 1 1 1 Cloudy 1
2025-06-09 14:48:38 1SCrJ7cJm')); waitfor delay '0:0:15' -- 1 1 1 1 1 1 Partly Cloudy (Day) 1
2025-06-09 14:48:37 1 1 1-1) OR 296=(SELECT 296 FROM PG_SLEEP(15))-- 1 1 1 1 Cloudy 1
2025-06-09 14:48:36 1-1)) OR 597=(SELECT 597 FROM PG_SLEEP(15))-- 1 1 1 1 1 1 Cloudy 1
2025-06-09 14:48:35 1X6t8GKhz'); waitfor delay '0:0:15' -- 1 1 1 1 1 1 Partly Cloudy (Day) 1
2025-06-09 14:48:34 1-1)); waitfor delay '0:0:15' -- 1 1 1 1 1 1 Partly Cloudy (Night) 1
2025-06-09 14:48:33 1 1 1 1 1 1 1 Partly Cloudy (Night) 1
2025-06-09 14:48:31 1-1 OR 233=(SELECT 233 FROM PG_SLEEP(15))-- 1 1 1 1 1 1 Cloudy 1
2025-06-09 14:48:30 1s9VWXTWM'); waitfor delay '0:0:15' -- 1 1 1 1 1 1 Partly Cloudy (Day) 1
2025-06-09 14:48:29 1 1 1-1 OR 904=(SELECT 904 FROM PG_SLEEP(15))-- 1 1 1 1 Cloudy 1
2025-06-09 14:48:28 1-1) OR 945=(SELECT 945 FROM PG_SLEEP(15))-- 1 1 1 1 1 1 Cloudy 1